sensor_id;sensor_type;location;lat;lon;timestamp;pressure;altitude;pressure_sealevel;temperature;humidity
70053;BME280;57398;52.032;4.376;2023-04-30T00:00:37;103000.97;;;5.45;nan
70053;BME280;57398;52.032;4.376;2023-04-30T00:03:25;102990.50;;;5.47;nan
70053;BME280;57398;52.032;4.376;2023-04-30T00:06:13;102985.94;;;5.51;nan
70053;BME280;57398;52.032;4.376;2023-04-30T00:09:02;102979.25;;;5.38;nan
70053;BME280;57398;52.032;4.376;2023-04-30T00:11:51;102983.16;;;5.33;nan
70053;BME280;57398;52.032;4.376;2023-04-30T00:14:39;102970.66;;;5.28;nan
70053;BME280;57398;52.032;4.376;2023-04-30T00:17:27;102973.66;;;5.33;nan
70053;BME280;57398;52.032;4.376;2023-04-30T00:20:16;102983.97;;;5.33;nan
70053;BME280;57398;52.032;4.376;2023-04-30T00:23:04;102976.22;;;5.33;nan
70053;BME280;57398;52.032;4.376;2023-04-30T00:25:52;102974.59;;;5.32;nan
70053;BME280;57398;52.032;4.376;2023-04-30T00:28:42;102976.91;;;5.35;nan
70053;BME280;57398;52.032;4.376;2023-04-30T00:31:30;102978.84;;;5.43;nan
70053;BME280;57398;52.032;4.376;2023-04-30T00:34:19;102964.06;;;5.45;nan
70053;BME280;57398;52.032;4.376;2023-04-30T00:37:07;102965.22;;;5.31;nan
70053;BME280;57398;52.032;4.376;2023-04-30T00:39:55;102969.56;;;5.31;nan
70053;BME280;57398;52.032;4.376;2023-04-30T00:42:43;102973.75;;;5.22;nan
70053;BME280;57398;52.032;4.376;2023-04-30T00:45:33;102977.53;;;5.18;nan
70053;BME280;57398;52.032;4.376;2023-04-30T00:48:21;102975.50;;;5.21;nan
70053;BME280;57398;52.032;4.376;2023-04-30T00:51:09;102969.53;;;5.11;nan
70053;BME280;57398;52.032;4.376;2023-04-30T00:53:59;102977.94;;;5.13;nan
70053;BME280;57398;52.032;4.376;2023-04-30T00:56:48;102975.91;;;5.17;nan
70053;BME280;57398;52.032;4.376;2023-04-30T00:59:37;102955.03;;;5.20;nan
70053;BME280;57398;52.032;4.376;2023-04-30T01:02:28;102976.88;;;5.25;nan
70053;BME280;57398;52.032;4.376;2023-04-30T01:05:17;102967.09;;;5.19;nan
70053;BME280;57398;52.032;4.376;2023-04-30T01:08:07;102973.22;;;5.18;nan
70053;BME280;57398;52.032;4.376;2023-04-30T01:11:06;102969.25;;;5.14;nan
70053;BME280;57398;52.032;4.376;2023-04-30T01:14:03;102972.22;;;5.10;nan
70053;BME280;57398;52.032;4.376;2023-04-30T01:17:01;102979.94;;;5.10;nan
70053;BME280;57398;52.032;4.376;2023-04-30T01:19:54;102982.44;;;5.21;nan
70053;BME280;57398;52.032;4.376;2023-04-30T01:22:46;102987.69;;;5.19;nan
70053;BME280;57398;52.032;4.376;2023-04-30T01:25:52;102989.91;;;5.24;nan
70053;BME280;57398;52.032;4.376;2023-04-30T01:28:44;102988.81;;;5.27;nan
70053;BME280;57398;52.032;4.376;2023-04-30T01:31:33;102983.91;;;5.14;nan
70053;BME280;57398;52.032;4.376;2023-04-30T01:34:21;102991.19;;;5.09;nan
70053;BME280;57398;52.032;4.376;2023-04-30T01:37:16;102991.19;;;5.09;nan
70053;BME280;57398;52.032;4.376;2023-04-30T01:40:17;102996.56;;;4.96;nan
70053;BME280;57398;52.032;4.376;2023-04-30T01:43:19;102985.25;;;4.87;nan
70053;BME280;57398;52.032;4.376;2023-04-30T01:46:17;102977.59;;;4.76;nan
70053;BME280;57398;52.032;4.376;2023-04-30T01:49:11;102971.91;;;4.72;nan
70053;BME280;57398;52.032;4.376;2023-04-30T01:52:08;102966.75;;;4.72;nan
70053;BME280;57398;52.032;4.376;2023-04-30T01:55:04;102966.47;;;4.75;nan
70053;BME280;57398;52.032;4.376;2023-04-30T01:57:56;102962.94;;;4.76;nan
70053;BME280;57398;52.032;4.376;2023-04-30T02:00:45;102964.28;;;4.71;nan
70053;BME280;57398;52.032;4.376;2023-04-30T02:03:34;102956.25;;;4.64;nan
70053;BME280;57398;52.032;4.376;2023-04-30T02:06:24;102967.25;;;4.66;nan
70053;BME280;57398;52.032;4.376;2023-04-30T02:09:14;102969.81;;;4.66;nan
70053;BME280;57398;52.032;4.376;2023-04-30T02:12:02;102971.22;;;4.70;nan
70053;BME280;57398;52.032;4.376;2023-04-30T02:14:51;102974.16;;;4.66;nan
70053;BME280;57398;52.032;4.376;2023-04-30T02:17:39;102979.31;;;4.66;nan
70053;BME280;57398;52.032;4.376;2023-04-30T02:20:29;102964.63;;;4.56;nan
70053;BME280;57398;52.032;4.376;2023-04-30T02:23:17;102970.38;;;4.49;nan
70053;BME280;57398;52.032;4.376;2023-04-30T02:26:05;102968.19;;;4.65;nan
70053;BME280;57398;52.032;4.376;2023-04-30T02:28:53;102965.84;;;4.62;nan
70053;BME280;57398;52.032;4.376;2023-04-30T02:31:42;102958.50;;;4.57;nan
70053;BME280;57398;52.032;4.376;2023-04-30T02:34:31;102956.63;;;4.59;nan
70053;BME280;57398;52.032;4.376;2023-04-30T02:37:20;102963.16;;;4.64;nan
70053;BME280;57398;52.032;4.376;2023-04-30T02:40:10;102960.53;;;4.54;nan
70053;BME280;57398;52.032;4.376;2023-04-30T02:42:58;102957.81;;;4.55;nan
70053;BME280;57398;52.032;4.376;2023-04-30T02:45:48;102955.63;;;4.51;nan
70053;BME280;57398;52.032;4.376;2023-04-30T02:48:36;102946.97;;;4.52;nan
70053;BME280;57398;52.032;4.376;2023-04-30T02:51:24;102948.91;;;4.59;nan
70053;BME280;57398;52.032;4.376;2023-04-30T02:54:15;102957.91;;;4.65;nan
70053;BME280;57398;52.032;4.376;2023-04-30T02:57:03;102956.00;;;4.67;nan
70053;BME280;57398;52.032;4.376;2023-04-30T02:59:52;102967.13;;;4.68;nan
70053;BME280;57398;52.032;4.376;2023-04-30T03:02:42;102959.41;;;4.68;nan
70053;BME280;57398;52.032;4.376;2023-04-30T03:05:30;102946.38;;;4.69;nan
70053;BME280;57398;52.032;4.376;2023-04-30T03:08:18;102955.50;;;4.73;nan
70053;BME280;57398;52.032;4.376;2023-04-30T03:11:08;102949.22;;;4.66;nan
70053;BME280;57398;52.032;4.376;2023-04-30T03:13:56;102943.06;;;4.57;nan
70053;BME280;57398;52.032;4.376;2023-04-30T03:16:44;102941.31;;;4.58;nan
70053;BME280;57398;52.032;4.376;2023-04-30T03:19:32;102948.84;;;4.50;nan
70053;BME280;57398;52.032;4.376;2023-04-30T03:22:20;102945.47;;;4.49;nan
70053;BME280;57398;52.032;4.376;2023-04-30T03:25:09;102945.38;;;4.39;nan
70053;BME280;57398;52.032;4.376;2023-04-30T03:27:59;102944.78;;;4.26;nan
70053;BME280;57398;52.032;4.376;2023-04-30T03:30:48;102941.75;;;4.21;nan
70053;BME280;57398;52.032;4.376;2023-04-30T03:33:36;102942.00;;;4.18;nan
70053;BME280;57398;52.032;4.376;2023-04-30T03:36:24;102937.47;;;4.10;nan
70053;BME280;57398;52.032;4.376;2023-04-30T03:39:13;102940.13;;;4.20;nan
70053;BME280;57398;52.032;4.376;2023-04-30T03:42:02;102926.03;;;4.35;nan
70053;BME280;57398;52.032;4.376;2023-04-30T03:44:51;102924.19;;;4.47;nan
70053;BME280;57398;52.032;4.376;2023-04-30T03:47:39;102925.00;;;4.48;nan
70053;BME280;57398;52.032;4.376;2023-04-30T03:50:27;102922.53;;;4.46;nan
70053;BME280;57398;52.032;4.376;2023-04-30T03:53:15;102916.41;;;4.37;nan
70053;BME280;57398;52.032;4.376;2023-04-30T03:56:04;102903.41;;;4.39;nan
70053;BME280;57398;52.032;4.376;2023-04-30T03:58:54;102910.38;;;4.48;nan
70053;BME280;57398;52.032;4.376;2023-04-30T04:01:43;102942.53;;;4.54;nan
70053;BME280;57398;52.032;4.376;2023-04-30T04:04:31;102928.91;;;4.63;nan
70053;BME280;57398;52.032;4.376;2023-04-30T04:07:20;102921.88;;;4.65;nan
70053;BME280;57398;52.032;4.376;2023-04-30T04:10:09;102916.03;;;4.63;nan
70053;BME280;57398;52.032;4.376;2023-04-30T04:12:57;102905.59;;;4.65;nan
70053;BME280;57398;52.032;4.376;2023-04-30T04:15:45;102900.56;;;4.63;nan
70053;BME280;57398;52.032;4.376;2023-04-30T04:18:35;102903.78;;;4.55;nan
70053;BME280;57398;52.032;4.376;2023-04-30T04:21:23;102889.78;;;4.48;nan
70053;BME280;57398;52.032;4.376;2023-04-30T04:24:11;102896.38;;;4.41;nan
70053;BME280;57398;52.032;4.376;2023-04-30T04:27:00;102892.06;;;4.41;nan
70053;BME280;57398;52.032;4.376;2023-04-30T04:29:48;102887.84;;;4.40;nan
70053;BME280;57398;52.032;4.376;2023-04-30T04:32:36;102889.25;;;4.45;nan
70053;BME280;57398;52.032;4.376;2023-04-30T04:35:34;102887.72;;;4.42;nan
70053;BME280;57398;52.032;4.376;2023-04-30T04:38:22;102885.72;;;4.46;nan
70053;BME280;57398;52.032;4.376;2023-04-30T04:41:11;102877.72;;;4.49;nan
70053;BME280;57398;52.032;4.376;2023-04-30T04:44:00;102889.28;;;4.54;nan
70053;BME280;57398;52.032;4.376;2023-04-30T04:46:49;102874.06;;;4.72;nan
70053;BME280;57398;52.032;4.376;2023-04-30T04:49:39;102878.00;;;4.76;nan
70053;BME280;57398;52.032;4.376;2023-04-30T04:52:29;102872.63;;;4.89;nan
70053;BME280;57398;52.032;4.376;2023-04-30T04:55:17;102869.97;;;5.10;nan
70053;BME280;57398;52.032;4.376;2023-04-30T04:58:06;102868.09;;;5.22;nan
70053;BME280;57398;52.032;4.376;2023-04-30T05:00:54;102857.56;;;5.25;nan
70053;BME280;57398;52.032;4.376;2023-04-30T05:03:43;102867.97;;;5.23;nan
70053;BME280;57398;52.032;4.376;2023-04-30T05:06:31;102870.00;;;5.20;nan
70053;BME280;57398;52.032;4.376;2023-04-30T05:09:21;102874.63;;;5.16;nan
70053;BME280;57398;52.032;4.376;2023-04-30T05:12:09;102868.50;;;5.17;nan
70053;BME280;57398;52.032;4.376;2023-04-30T05:14:57;102862.16;;;5.21;nan
70053;BME280;57398;52.032;4.376;2023-04-30T05:17:45;102870.03;;;5.30;nan
70053;BME280;57398;52.032;4.376;2023-04-30T05:20:33;102877.38;;;5.44;nan
70053;BME280;57398;52.032;4.376;2023-04-30T05:23:21;102868.97;;;5.52;nan
70053;BME280;57398;52.032;4.376;2023-04-30T05:26:11;102862.59;;;5.65;nan
70053;BME280;57398;52.032;4.376;2023-04-30T05:28:59;102854.31;;;5.81;nan
70053;BME280;57398;52.032;4.376;2023-04-30T05:31:47;102849.00;;;5.93;nan
70053;BME280;57398;52.032;4.376;2023-04-30T05:34:35;102854.06;;;6.04;nan
70053;BME280;57398;52.032;4.376;2023-04-30T05:37:24;102857.69;;;6.11;nan
70053;BME280;57398;52.032;4.376;2023-04-30T05:40:12;102855.25;;;6.19;nan
70053;BME280;57398;52.032;4.376;2023-04-30T05:43:03;102860.13;;;6.22;nan
70053;BME280;57398;52.032;4.376;2023-04-30T05:45:51;102857.50;;;6.42;nan
70053;BME280;57398;52.032;4.376;2023-04-30T05:48:39;102859.25;;;6.41;nan
70053;BME280;57398;52.032;4.376;2023-04-30T05:51:27;102871.44;;;6.59;nan
70053;BME280;57398;52.032;4.376;2023-04-30T05:54:15;102860.13;;;6.69;nan
70053;BME280;57398;52.032;4.376;2023-04-30T05:57:03;102852.75;;;6.75;nan
70053;BME280;57398;52.032;4.376;2023-04-30T05:59:53;102855.41;;;6.92;nan
70053;BME280;57398;52.032;4.376;2023-04-30T06:02:41;102848.69;;;7.00;nan
70053;BME280;57398;52.032;4.376;2023-04-30T06:05:29;102844.56;;;7.07;nan
70053;BME280;57398;52.032;4.376;2023-04-30T06:08:17;102830.09;;;7.14;nan
70053;BME280;57398;52.032;4.376;2023-04-30T06:11:05;102823.09;;;7.24;nan
70053;BME280;57398;52.032;4.376;2023-04-30T06:13:54;102807.88;;;7.21;nan
70053;BME280;57398;52.032;4.376;2023-04-30T06:16:44;102811.22;;;7.31;nan
70053;BME280;57398;52.032;4.376;2023-04-30T06:19:32;102803.91;;;7.45;nan
70053;BME280;57398;52.032;4.376;2023-04-30T06:22:20;102803.00;;;7.54;nan
70053;BME280;57398;52.032;4.376;2023-04-30T06:25:08;102801.28;;;7.63;nan
70053;BME280;57398;52.032;4.376;2023-04-30T06:27:57;102801.00;;;7.66;nan
70053;BME280;57398;52.032;4.376;2023-04-30T06:30:45;102814.13;;;7.72;nan
70053;BME280;57398;52.032;4.376;2023-04-30T06:33:34;102815.47;;;7.76;nan
70053;BME280;57398;52.032;4.376;2023-04-30T06:36:22;102829.25;;;7.85;nan
70053;BME280;57398;52.032;4.376;2023-04-30T06:39:13;102844.03;;;7.93;nan
70053;BME280;57398;52.032;4.376;2023-04-30T06:42:02;102851.03;;;8.01;nan
70053;BME280;57398;52.032;4.376;2023-04-30T06:44:50;102858.34;;;8.05;nan
70053;BME280;57398;52.032;4.376;2023-04-30T06:47:38;102871.09;;;7.98;nan
70053;BME280;57398;52.032;4.376;2023-04-30T06:50:30;102896.28;;;8.14;nan
70053;BME280;57398;52.032;4.376;2023-04-30T06:53:18;102913.19;;;8.27;nan
70053;BME280;57398;52.032;4.376;2023-04-30T06:56:06;102934.47;;;8.38;nan
70053;BME280;57398;52.032;4.376;2023-04-30T06:58:56;102962.00;;;8.39;nan
70053;BME280;57398;52.032;4.376;2023-04-30T07:01:45;102989.41;;;8.42;nan
70053;BME280;57398;52.032;4.376;2023-04-30T07:04:33;103024.84;;;8.42;nan
70053;BME280;57398;52.032;4.376;2023-04-30T07:07:22;103062.56;;;8.62;nan
70053;BME280;57398;52.032;4.376;2023-04-30T07:10:10;103100.09;;;8.76;nan
70053;BME280;57398;52.032;4.376;2023-04-30T07:12:59;103126.22;;;8.83;nan
70053;BME280;57398;52.032;4.376;2023-04-30T07:15:47;103153.16;;;8.90;nan
70053;BME280;57398;52.032;4.376;2023-04-30T07:18:35;103176.03;;;8.94;nan
70053;BME280;57398;52.032;4.376;2023-04-30T07:21:24;103190.59;;;8.95;nan
70053;BME280;57398;52.032;4.376;2023-04-30T07:24:14;103209.28;;;8.99;nan
70053;BME280;57398;52.032;4.376;2023-04-30T07:27:02;103202.22;;;9.09;nan
70053;BME280;57398;52.032;4.376;2023-04-30T07:29:53;103227.34;;;9.27;nan
70053;BME280;57398;52.032;4.376;2023-04-30T07:32:42;103237.94;;;9.33;nan
70053;BME280;57398;52.032;4.376;2023-04-30T07:35:30;103240.06;;;9.38;nan
70053;BME280;57398;52.032;4.376;2023-04-30T07:38:18;103261.63;;;9.38;nan
70053;BME280;57398;52.032;4.376;2023-04-30T07:41:09;103275.16;;;9.50;nan
70053;BME280;57398;52.032;4.376;2023-04-30T07:43:57;103286.44;;;9.59;nan
70053;BME280;57398;52.032;4.376;2023-04-30T07:46:46;103296.03;;;9.67;nan
70053;BME280;57398;52.032;4.376;2023-04-30T07:49:35;103308.59;;;9.71;nan
70053;BME280;57398;52.032;4.376;2023-04-30T07:52:23;103320.81;;;9.79;nan
70053;BME280;57398;52.032;4.376;2023-04-30T07:55:11;103314.03;;;9.86;nan
70053;BME280;57398;52.032;4.376;2023-04-30T07:58:01;103323.97;;;9.91;nan
70053;BME280;57398;52.032;4.376;2023-04-30T08:00:50;103330.47;;;9.95;nan
70053;BME280;57398;52.032;4.376;2023-04-30T08:03:38;103341.38;;;10.24;nan
70053;BME280;57398;52.032;4.376;2023-04-30T08:06:26;103341.16;;;10.18;nan
70053;BME280;57398;52.032;4.376;2023-04-30T08:09:15;103353.13;;;10.29;nan
70053;BME280;57398;52.032;4.376;2023-04-30T08:12:03;103342.28;;;10.33;nan
70053;BME280;57398;52.032;4.376;2023-04-30T08:14:59;103360.41;;;10.59;nan
70053;BME280;57398;52.032;4.376;2023-04-30T08:17:48;103364.66;;;10.68;nan
70053;BME280;57398;52.032;4.376;2023-04-30T08:20:37;103376.22;;;10.74;nan
70053;BME280;57398;52.032;4.376;2023-04-30T08:23:26;103381.31;;;10.92;nan
70053;BME280;57398;52.032;4.376;2023-04-30T08:26:14;103375.81;;;10.95;nan
70053;BME280;57398;52.032;4.376;2023-04-30T08:29:02;103385.66;;;10.75;nan
70053;BME280;57398;52.032;4.376;2023-04-30T08:31:51;103376.47;;;10.97;nan
70053;BME280;57398;52.032;4.376;2023-04-30T08:34:40;103386.56;;;11.08;nan
70053;BME280;57398;52.032;4.376;2023-04-30T08:37:31;103378.09;;;10.98;nan
70053;BME280;57398;52.032;4.376;2023-04-30T08:40:19;103382.41;;;11.32;nan
70053;BME280;57398;52.032;4.376;2023-04-30T08:43:09;103379.78;;;11.40;nan
70053;BME280;57398;52.032;4.376;2023-04-30T08:45:58;103385.00;;;12.22;nan
70053;BME280;57398;52.032;4.376;2023-04-30T08:48:47;103374.31;;;13.65;nan
70053;BME280;57398;52.032;4.376;2023-04-30T08:51:36;103339.03;;;14.58;nan
70053;BME280;57398;52.032;4.376;2023-04-30T08:54:25;103292.69;;;15.10;nan
70053;BME280;57398;52.032;4.376;2023-04-30T08:57:15;103224.66;;;15.80;nan
70053;BME280;57398;52.032;4.376;2023-04-30T09:00:04;103170.59;;;16.40;nan
70053;BME280;57398;52.032;4.376;2023-04-30T09:02:53;103089.47;;;16.52;nan
70053;BME280;57398;52.032;4.376;2023-04-30T09:05:43;103050.31;;;16.57;nan
70053;BME280;57398;52.032;4.376;2023-04-30T09:08:41;103033.41;;;16.26;nan
70053;BME280;57398;52.032;4.376;2023-04-30T09:11:30;102941.16;;;16.56;nan
70053;BME280;57398;52.032;4.376;2023-04-30T09:14:23;102939.28;;;16.70;nan
70053;BME280;57398;52.032;4.376;2023-04-30T09:17:20;102816.41;;;16.53;nan
70053;BME280;57398;52.032;4.376;2023-04-30T09:20:10;101929.78;;;16.42;nan
70053;BME280;57398;52.032;4.376;2023-04-30T09:23:06;101720.47;;;17.18;nan
70053;BME280;57398;52.032;4.376;2023-04-30T09:25:55;101598.38;;;15.57;nan
70053;BME280;57398;52.032;4.376;2023-04-30T09:28:53;101619.00;;;15.94;nan
70053;BME280;57398;52.032;4.376;2023-04-30T09:31:44;101616.63;;;16.88;nan
70053;BME280;57398;52.032;4.376;2023-04-30T09:34:33;101584.66;;;16.24;nan
70053;BME280;57398;52.032;4.376;2023-04-30T09:37:34;101586.44;;;15.89;nan
70053;BME280;57398;52.032;4.376;2023-04-30T09:40:34;101575.03;;;15.96;nan
70053;BME280;57398;52.032;4.376;2023-04-30T09:43:22;101558.28;;;16.64;nan
70053;BME280;57398;52.032;4.376;2023-04-30T09:46:11;101527.69;;;16.92;nan
70053;BME280;57398;52.032;4.376;2023-04-30T09:49:02;101495.19;;;16.37;nan
70053;BME280;57398;52.032;4.376;2023-04-30T09:51:55;101459.88;;;17.06;nan
70053;BME280;57398;52.032;4.376;2023-04-30T09:54:44;101468.41;;;16.74;nan
70053;BME280;57398;52.032;4.376;2023-04-30T09:57:34;101467.78;;;16.84;nan
70053;BME280;57398;52.032;4.376;2023-04-30T10:00:23;101471.13;;;17.01;nan
70053;BME280;57398;52.032;4.376;2023-04-30T10:03:13;101480.00;;;16.78;nan
70053;BME280;57398;52.032;4.376;2023-04-30T10:06:02;101475.91;;;16.82;nan
70053;BME280;57398;52.032;4.376;2023-04-30T10:08:55;101480.97;;;16.50;nan
70053;BME280;57398;52.032;4.376;2023-04-30T10:11:44;101478.56;;;15.47;nan
70053;BME280;57398;52.032;4.376;2023-04-30T10:14:34;101442.53;;;16.39;nan
70053;BME280;57398;52.032;4.376;2023-04-30T10:17:25;101446.66;;;16.95;nan
70053;BME280;57398;52.032;4.376;2023-04-30T10:20:16;101463.88;;;16.69;nan
70053;BME280;57398;52.032;4.376;2023-04-30T10:23:06;101467.50;;;16.24;nan
70053;BME280;57398;52.032;4.376;2023-04-30T10:25:55;101462.63;;;15.48;nan
70053;BME280;57398;52.032;4.376;2023-04-30T10:28:47;101459.50;;;15.35;nan
70053;BME280;57398;52.032;4.376;2023-04-30T10:31:38;101441.41;;;15.79;nan
70053;BME280;57398;52.032;4.376;2023-04-30T10:34:37;101437.66;;;16.47;nan
70053;BME280;57398;52.032;4.376;2023-04-30T10:37:33;101427.13;;;16.64;nan
70053;BME280;57398;52.032;4.376;2023-04-30T10:40:25;101432.50;;;16.96;nan
70053;BME280;57398;52.032;4.376;2023-04-30T10:43:16;101443.91;;;16.85;nan
70053;BME280;57398;52.032;4.376;2023-04-30T10:46:07;101465.78;;;16.13;nan
70053;BME280;57398;52.032;4.376;2023-04-30T10:48:56;101470.78;;;15.52;nan
70053;BME280;57398;52.032;4.376;2023-04-30T10:51:47;101443.19;;;15.61;nan
70053;BME280;57398;52.032;4.376;2023-04-30T10:54:36;101412.53;;;16.29;nan
70053;BME280;57398;52.032;4.376;2023-04-30T10:57:28;101403.56;;;16.47;nan
70053;BME280;57398;52.032;4.376;2023-04-30T11:00:24;101390.03;;;16.78;nan
70053;BME280;57398;52.032;4.376;2023-04-30T11:03:12;101392.69;;;17.05;nan
70053;BME280;57398;52.032;4.376;2023-04-30T11:06:08;101413.16;;;17.03;nan
70053;BME280;57398;52.032;4.376;2023-04-30T11:09:02;101419.94;;;17.26;nan
70053;BME280;57398;52.032;4.376;2023-04-30T11:12:00;101408.84;;;17.19;nan
70053;BME280;57398;52.032;4.376;2023-04-30T11:14:49;101412.19;;;16.87;nan
70053;BME280;57398;52.032;4.376;2023-04-30T11:17:37;101402.59;;;16.31;nan
70053;BME280;57398;52.032;4.376;2023-04-30T11:20:26;101403.50;;;16.20;nan
70053;BME280;57398;52.032;4.376;2023-04-30T11:23:21;101391.13;;;16.38;nan
70053;BME280;57398;52.032;4.376;2023-04-30T11:26:25;101386.97;;;16.20;nan
70053;BME280;57398;52.032;4.376;2023-04-30T11:29:14;101363.56;;;16.13;nan
70053;BME280;57398;52.032;4.376;2023-04-30T11:32:03;101374.03;;;16.35;nan
70053;BME280;57398;52.032;4.376;2023-04-30T11:34:56;101351.06;;;16.42;nan
70053;BME280;57398;52.032;4.376;2023-04-30T11:37:48;101364.78;;;16.49;nan
70053;BME280;57398;52.032;4.376;2023-04-30T11:40:38;101379.91;;;16.03;nan
70053;BME280;57398;52.032;4.376;2023-04-30T11:43:27;101370.06;;;16.10;nan
70053;BME280;57398;52.032;4.376;2023-04-30T11:46:15;101357.16;;;16.48;nan
70053;BME280;57398;52.032;4.376;2023-04-30T11:49:04;101337.47;;;16.45;nan
70053;BME280;57398;52.032;4.376;2023-04-30T11:51:52;101343.38;;;16.58;nan
70053;BME280;57398;52.032;4.376;2023-04-30T11:54:40;101335.09;;;16.44;nan
70053;BME280;57398;52.032;4.376;2023-04-30T11:57:38;101314.47;;;16.52;nan
70053;BME280;57398;52.032;4.376;2023-04-30T12:00:29;101316.09;;;17.13;nan
70053;BME280;57398;52.032;4.376;2023-04-30T12:03:17;101301.75;;;16.66;nan
70053;BME280;57398;52.032;4.376;2023-04-30T12:06:09;101298.91;;;16.95;nan
70053;BME280;57398;52.032;4.376;2023-04-30T12:08:58;101315.72;;;17.31;nan
70053;BME280;57398;52.032;4.376;2023-04-30T12:11:47;101327.19;;;17.52;nan
70053;BME280;57398;52.032;4.376;2023-04-30T12:14:37;101348.28;;;16.98;nan
70053;BME280;57398;52.032;4.376;2023-04-30T12:17:32;101329.97;;;17.41;nan
70053;BME280;57398;52.032;4.376;2023-04-30T12:20:25;101354.25;;;17.53;nan
70053;BME280;57398;52.032;4.376;2023-04-30T12:23:14;101330.13;;;17.61;nan
70053;BME280;57398;52.032;4.376;2023-04-30T12:26:02;101309.81;;;17.89;nan
70053;BME280;57398;52.032;4.376;2023-04-30T12:28:51;101294.09;;;17.99;nan
70053;BME280;57398;52.032;4.376;2023-04-30T12:31:41;101274.63;;;17.95;nan
70053;BME280;57398;52.032;4.376;2023-04-30T12:34:29;101282.50;;;17.90;nan
70053;BME280;57398;52.032;4.376;2023-04-30T12:37:19;101291.78;;;17.65;nan
70053;BME280;57398;52.032;4.376;2023-04-30T12:40:08;101271.72;;;17.44;nan
70053;BME280;57398;52.032;4.376;2023-04-30T12:42:59;101252.88;;;17.57;nan
70053;BME280;57398;52.032;4.376;2023-04-30T12:45:49;101249.88;;;17.91;nan
70053;BME280;57398;52.032;4.376;2023-04-30T12:48:43;101255.66;;;17.88;nan
70053;BME280;57398;52.032;4.376;2023-04-30T12:51:35;101231.34;;;17.60;nan
70053;BME280;57398;52.032;4.376;2023-04-30T12:54:26;101228.09;;;17.90;nan
70053;BME280;57398;52.032;4.376;2023-04-30T12:57:15;101223.66;;;17.43;nan
70053;BME280;57398;52.032;4.376;2023-04-30T13:00:07;101219.94;;;17.39;nan
70053;BME280;57398;52.032;4.376;2023-04-30T13:02:57;101222.88;;;17.48;nan
70053;BME280;57398;52.032;4.376;2023-04-30T13:05:50;101200.00;;;17.01;nan
70053;BME280;57398;52.032;4.376;2023-04-30T13:08:39;101191.66;;;17.56;nan
70053;BME280;57398;52.032;4.376;2023-04-30T13:11:42;101174.25;;;18.03;nan
70053;BME280;57398;52.032;4.376;2023-04-30T13:14:31;101152.19;;;18.30;nan
70053;BME280;57398;52.032;4.376;2023-04-30T13:17:19;101144.84;;;18.47;nan
70053;BME280;57398;52.032;4.376;2023-04-30T13:20:09;101156.91;;;18.28;nan
70053;BME280;57398;52.032;4.376;2023-04-30T13:23:00;101137.47;;;18.24;nan
70053;BME280;57398;52.032;4.376;2023-04-30T13:25:48;101137.44;;;18.03;nan
70053;BME280;57398;52.032;4.376;2023-04-30T13:28:36;101131.13;;;18.55;nan
70053;BME280;57398;52.032;4.376;2023-04-30T13:31:25;101137.22;;;18.81;nan
70053;BME280;57398;52.032;4.376;2023-04-30T13:34:13;101142.13;;;19.14;nan
70053;BME280;57398;52.032;4.376;2023-04-30T13:37:01;101133.47;;;19.08;nan
70053;BME280;57398;52.032;4.376;2023-04-30T13:39:54;101140.84;;;19.11;nan
70053;BME280;57398;52.032;4.376;2023-04-30T13:42:45;101169.53;;;19.08;nan
70053;BME280;57398;52.032;4.376;2023-04-30T13:45:33;101194.22;;;19.32;nan
70053;BME280;57398;52.032;4.376;2023-04-30T13:48:21;101230.53;;;19.45;nan
70053;BME280;57398;52.032;4.376;2023-04-30T13:51:09;101265.63;;;19.25;nan
70053;BME280;57398;52.032;4.376;2023-04-30T13:53:58;101226.91;;;19.31;nan
70053;BME280;57398;52.032;4.376;2023-04-30T13:56:47;101288.25;;;19.42;nan
70053;BME280;57398;52.032;4.376;2023-04-30T13:59:35;101396.28;;;19.27;nan
70053;BME280;57398;52.032;4.376;2023-04-30T14:02:25;101386.53;;;19.42;nan
70053;BME280;57398;52.032;4.376;2023-04-30T14:05:13;101409.72;;;19.40;nan
70053;BME280;57398;52.032;4.376;2023-04-30T14:08:01;101382.28;;;19.46;nan
70053;BME280;57398;52.032;4.376;2023-04-30T14:10:52;101401.81;;;19.40;nan
70053;BME280;57398;52.032;4.376;2023-04-30T14:13:42;101409.72;;;19.81;nan
70053;BME280;57398;52.032;4.376;2023-04-30T14:16:30;101453.44;;;19.57;nan
70053;BME280;57398;52.032;4.376;2023-04-30T14:19:19;101472.41;;;19.38;nan
70053;BME280;57398;52.032;4.376;2023-04-30T14:22:07;101621.56;;;19.50;nan
70053;BME280;57398;52.032;4.376;2023-04-30T14:24:55;101672.34;;;19.35;nan
70053;BME280;57398;52.032;4.376;2023-04-30T14:27:43;101612.59;;;19.56;nan
70053;BME280;57398;52.032;4.376;2023-04-30T14:30:34;101573.06;;;19.45;nan
70053;BME280;57398;52.032;4.376;2023-04-30T14:33:23;101675.03;;;19.45;nan
70053;BME280;57398;52.032;4.376;2023-04-30T14:36:11;101700.44;;;19.19;nan
70053;BME280;57398;52.032;4.376;2023-04-30T14:39:00;101631.19;;;19.18;nan
70053;BME280;57398;52.032;4.376;2023-04-30T14:41:50;101498.75;;;19.38;nan
70053;BME280;57398;52.032;4.376;2023-04-30T14:44:39;101536.84;;;19.05;nan
70053;BME280;57398;52.032;4.376;2023-04-30T14:47:29;101622.38;;;18.92;nan
70053;BME280;57398;52.032;4.376;2023-04-30T14:50:17;101740.88;;;18.97;nan
70053;BME280;57398;52.032;4.376;2023-04-30T14:53:06;101714.13;;;19.11;nan
70053;BME280;57398;52.032;4.376;2023-04-30T14:55:55;101780.38;;;18.70;nan
70053;BME280;57398;52.032;4.376;2023-04-30T14:58:43;101816.00;;;18.78;nan
70053;BME280;57398;52.032;4.376;2023-04-30T15:01:31;101827.09;;;18.85;nan
70053;BME280;57398;52.032;4.376;2023-04-30T15:04:21;101821.38;;;18.88;nan
70053;BME280;57398;52.032;4.376;2023-04-30T15:07:09;101893.78;;;18.91;nan
70053;BME280;57398;52.032;4.376;2023-04-30T15:09:57;101918.81;;;18.93;nan
70053;BME280;57398;52.032;4.376;2023-04-30T15:12:46;101919.84;;;18.70;nan
70053;BME280;57398;52.032;4.376;2023-04-30T15:15:34;101896.97;;;18.93;nan
70053;BME280;57398;52.032;4.376;2023-04-30T15:18:23;101902.97;;;18.66;nan